CheckWX is a tool to help pilots better visualize weather data.  It is not intended as a substitute for an official pre-flight weather briefing.

03:45:47 UTC

KSWF METAR
Stewart International Airport
New York, New York, USA
Current

1 hour ago

KSWF 260245Z 18006KT 10SM OVC035 16/10 A3006
Observed
May-26 @ 02:45 UTC
Wind
  • 180° at 6 KTS
Visibility
10 SM
Flight Rules
VFR
Cloud Levels
  • Overcast at 3,500' AGL
Temperature
16°C / 61°F
Dewpoint
10°C / 50°F
Humidity
68%
Altimeter
30.06" Hg
Pressure
1017.92 hPa
Previous

2 hours ago

KSWF 260145Z VRB05KT 10SM OVC040 16/10 A3005
Observed
May-26 @ 01:45 UTC
Wind
  • Variable at 5 KTS
Visibility
10 SM
Flight Rules
VFR
Cloud Levels
  • Overcast at 4,000' AGL
Temperature
16°C / 61°F
Dewpoint
10°C / 50°F
Humidity
68%
Altimeter
30.05" Hg
Pressure
1017.62 hPa
Previous

3 hours ago

KSWF 260045Z 18010KT 10SM BKN040 17/10 A3006
Observed
May-26 @ 00:45 UTC
Wind
  • 180° at 10 KTS
Visibility
10 SM
Flight Rules
VFR
Cloud Levels
  • Broken at 4,000' AGL
Temperature
17°C / 63°F
Dewpoint
10°C / 50°F
Humidity
64%
Altimeter
30.06" Hg
Pressure
1017.92 hPa